메인 페이지
METAR-TAF:

METAR-TAF

공항 :

Huatulco, 멕시코

위도: 15-47N, 경도: 096-16W, 고도: 143m

현재 날씨관측

예보는 6 시간 7분 전, 02:43시(UTC)에 발표되었습니다.
무풍
온도 24°C
습도 89%
기압 1007 hPa
시정: 6.4km
고도 2000ft 상공 구름 많음
고도 10000ft 상공 흐림

METAR: MMBT 210243Z 00000KT 4SM BKN020 OVC100 24/22 A2974 RMK 60002 8/42/ DZ VRB COND

시각: 03:50 (08:50 UTC)

예보

예보는 3 시간 24분 전, 05:26시(UTC)에 발표되었습니다.
예보 대상 시간: 21일 06시부터 22일 06시까지 (UTC)
kt
시정: 6.4km
고도 2000ft 상공 구름 보통
고도 10000ft 상공 흐림
연무
일시적
21일 11시부터 21일 15시까지 (UTC)
시정: 4.8km
약한비
21일 1800시부터 (UTC)
10kt
시정: 8.0km
고도 2500ft 상공 구름 많음, 적란운.
연무
일시적
21일 20시부터 22일 00시까지 (UTC)
시정: 8.0km
뇌우, 비
22일 0300시부터 (UTC)
남남서5kt
시정: 10km
고도 2000ft 상공 구름 많음

TAF: MMBT 210526Z 2106/2206 00000KT 4SM HZ SCT020 OVC100 TEMPO 2111/2115 3SM -RA FM211800 18010KT 5SM HZ BKN025CB TEMPO 2120/2200 5SM TSRA FM220300 20005KT P6SM BKN020

4,000개 이상의 공항 관측 자료 및 예보 (METAR 및 TAF 보고).

지도상에서 검색 가능한 기상관측소가 노란 점과 빨간 점으로 표시되어 있습니다.

기상관측소 명을 보려면 표시 위로 마우스를 이동하세요.

날씨 관측과 예보를 보려면 클릭하세요.

지도 변경 : 확대하려면 엑스 표시가 있는 녹색 버튼, 축소하려면 빼기 표시가 있는 녹색 버튼, 다음 페이지의 지도를 보려면 녹색 화살표를 클릭하세요.


METAR-TAF: